Time;durP1;ratioP1;P1;durP2;ratioP2;P2;SDS_P1;SDS_P2;PMS_P1;PMS_P2;Temp;Humidity;BMP_temperature;BMP_pressure;BME280_temperature;BME280_humidity;BME280_pressure;Samples;Min_cycle;Max_cycle;Signal;HPM_P1;HPM_P2
2022/11/29 00:01:37;;;;;;;12.52;8.23;;;;;;;8.45;71.93;100096.03;5032435;28;20382;-46
2022/11/29 00:04:03;;;;;;;12.20;7.55;;;;;;;8.54;71.50;100094.94;5032264;28;20041;-45
2022/11/29 00:06:31;;;;;;;10.80;7.13;;;;;;;8.45;71.84;100096.03;5031973;28;20037;-46
2022/11/29 00:08:58;;;;;;;11.63;7.50;;;;;;;8.56;71.24;100091.09;5032516;28;20104;-44
2022/11/29 00:14:15;;;;;;;11.95;7.57;;;;;;;8.53;71.45;100088.81;5032504;28;20500;-48
2022/11/29 00:16:42;;;;;;;11.18;6.95;;;;;;;8.46;71.75;100092.38;5032312;28;20035;-47
2022/11/29 00:19:09;;;;;;;12.50;7.43;;;;;;;8.27;72.37;100097.16;5032393;28;20140;-45
2022/11/29 00:21:35;;;;;;;12.52;7.38;;;;;;;8.32;72.24;100094.78;5032189;28;20025;-45
2022/11/29 00:24:00;;;;;;;11.63;7.07;;;;;;;8.39;72.06;100097.53;5032105;28;20080;-47
2022/11/29 00:26:26;;;;;;;10.40;6.72;;;;;;;8.47;71.88;100092.16;5032033;28;20057;-47
2022/11/29 00:28:52;;;;;;;11.73;6.88;;;;;;;8.41;72.05;100093.75;5032126;28;20175;-45
2022/11/29 00:31:25;;;;;;;9.73;6.32;;;;;;;8.47;71.37;100092.16;5031963;28;20028;-45
2022/11/29 00:33:52;;;;;;;9.75;5.65;;;;;;;8.51;71.11;100082.03;5031836;28;20033;-48
2022/11/29 00:36:18;;;;;;;9.45;5.63;;;;;;;8.60;70.40;100072.97;5031972;28;20017;-46
2022/11/29 00:38:44;;;;;;;10.32;6.20;;;;;;;8.61;70.14;100082.59;5031517;28;20029;-48
2022/11/29 00:41:10;;;;;;;13.00;6.60;;;;;;;8.66;70.21;100079.38;5031450;28;20397;-47
2022/11/29 00:43:35;;;;;;;8.48;5.25;;;;;;;8.56;70.16;100077.81;5031590;28;20500;-44
2022/11/29 00:46:01;;;;;;;7.97;5.43;;;;;;;8.67;70.03;100078.41;5031393;28;20033;-46
2022/11/29 00:48:27;;;;;;;8.13;5.28;;;;;;;8.47;70.86;100070.94;5031422;28;20099;-47
2022/11/29 00:50:52;;;;;;;6.10;4.70;;;;;;;8.55;70.26;100073.53;5031485;28;20100;-45
2022/11/29 00:53:18;;;;;;;6.38;4.90;;;;;;;8.40;70.08;100075.31;5031582;28;20035;-45
2022/11/29 00:55:46;;;;;;;6.00;4.90;;;;;;;8.49;70.36;100079.59;5031320;28;20045;-48
2022/11/29 00:58:11;;;;;;;6.55;4.97;;;;;;;8.69;70.11;100079.03;5031148;28;20025;-45
2022/11/29 01:00:36;;;;;;;7.72;5.88;;;;;;;8.78;69.32;100076.09;5031409;28;20393;-48
2022/11/29 01:03:02;;;;;;;8.07;5.50;;;;;;;8.59;70.04;100068.69;5032491;28;20025;-49
2022/11/29 01:05:29;;;;;;;8.23;5.55;;;;;;;8.53;70.53;100078.22;5031337;28;20073;-45
2022/11/29 01:07:55;;;;;;;7.95;5.30;;;;;;;8.72;69.26;100073.34;5031100;28;20555;-46
2022/11/29 01:10:20;;;;;;;7.10;5.28;;;;;;;8.71;69.45;100063.75;5031458;28;20021;-45
2022/11/29 01:12:45;;;;;;;7.38;4.85;;;;;;;8.67;70.36;100060.63;5031169;28;20025;-45
2022/11/29 01:15:11;;;;;;;7.20;5.20;;;;;;;8.59;70.77;100060.75;5030413;28;20083;-45
2022/11/29 01:17:38;;;;;;;7.03;4.95;;;;;;;8.51;71.09;100059.00;5030827;28;20021;-44
2022/11/29 01:20:06;;;;;;;6.90;4.70;;;;;;;8.25;71.75;100054.09;5030811;28;20087;-46
2022/11/29 01:22:33;;;;;;;7.75;5.35;;;;;;;8.13;73.01;100052.84;5030785;28;20103;-45
2022/11/29 01:24:58;;;;;;;8.18;5.75;;;;;;;8.34;72.25;100053.00;5030773;28;20123;-46
2022/11/29 01:27:23;;;;;;;8.38;5.63;;;;;;;8.48;71.91;100051.41;5029885;28;20507;-46
2022/11/29 01:29:49;;;;;;;7.20;5.18;;;;;;;8.45;72.17;100050.94;5030843;28;20036;-46
2022/11/29 01:32:14;;;;;;;8.20;5.60;;;;;;;8.55;71.66;100052.31;5030579;28;20047;-46
2022/11/29 01:34:40;;;;;;;9.73;6.38;;;;;;;8.74;70.82;100055.44;5030463;28;20048;-45
2022/11/29 01:37:05;;;;;;;8.68;5.78;;;;;;;8.60;71.05;100047.28;5030529;28;20018;-46
2022/11/29 01:39:31;;;;;;;8.75;6.03;;;;;;;8.51;71.23;100039.59;5030748;28;20025;-46
2022/11/29 01:41:56;;;;;;;8.18;5.70;;;;;;;8.32;72.13;100040.91;5030610;28;20123;-46
2022/11/29 01:44:21;;;;;;;10.18;6.30;;;;;;;8.40;72.12;100043.50;5030538;28;20401;-43
2022/11/29 01:46:47;;;;;;;10.32;6.93;;;;;;;8.43;72.24;100052.94;5030613;28;20032;-45
2022/11/29 01:49:20;;;;;;;10.40;7.18;;;;;;;8.60;71.52;100046.44;5030808;28;20021;-45
2022/11/29 01:52:07;;;;;;;10.57;6.80;;;;;;;8.65;71.54;100046.75;5030383;28;20060;-46
2022/11/29 01:54:42;;;;;;;11.57;7.03;;;;;;;8.69;71.42;100049.84;5030547;28;20029;-46
2022/11/29 01:57:08;;;;;;;10.07;7.10;;;;;;;8.73;70.93;100046.63;5030184;28;20530;-45
2022/11/29 01:59:38;;;;;;;10.55;6.97;;;;;;;8.62;71.23;100047.09;5030051;28;20026;-45
2022/11/29 02:02:05;;;;;;;;;;;;;;;8.62;71.65;100036.47;5030816;28;20021;-48
2022/11/29 02:04:35;;;;;;;11.30;7.65;;;;;;;8.50;71.84;100032.66;5030226;28;20353;-45
2022/11/29 02:07:02;;;;;;;12.25;8.18;;;;;;;8.53;72.12;100038.41;5030045;28;20028;-45
2022/11/29 02:09:27;;;;;;;12.32;7.95;;;;;;;8.41;72.67;100039.81;5030134;28;20026;-46
2022/11/29 02:12:01;;;;;;;12.13;7.70;;;;;;;8.38;72.67;100038.38;5030117;28;20106;-45
2022/11/29 02:14:44;;;;;;;12.80;8.27;;;;;;;8.50;72.31;100035.31;5030125;28;20485;-45
2022/11/29 02:17:40;;;;;;;12.80;8.55;;;;;;;8.44;72.67;100039.50;5030427;28;20036;-45
2022/11/29 02:20:27;;;;;;;13.13;8.88;;;;;;;8.38;72.63;100042.88;5030083;28;20409;-46
2022/11/29 02:23:23;;;;;;;12.73;8.45;;;;;;;8.44;73.14;100044.81;5028671;28;20413;-46
2022/11/29 02:25:54;;;;;;;12.10;8.10;;;;;;;8.50;72.19;100049.38;5029819;28;20433;-45
2022/11/29 02:28:47;;;;;;;12.40;8.27;;;;;;;8.40;72.70;100033.72;5030088;28;20032;-44
2022/11/29 02:31:40;;;;;;;13.88;7.95;;;;;;;8.48;72.71;100045.28;5030182;28;20014;-45
2022/11/29 02:34:06;;;;;;;11.80;7.88;;;;;;;8.14;73.70;100046.56;5029842;28;20032;-44
2022/11/29 02:36:43;;;;;;;14.98;8.52;;;;;;;8.34;73.05;100042.41;5029966;28;20025;-45
2022/11/29 02:39:38;;;;;;;13.88;9.02;;;;;;;8.54;72.65;100050.66;5033286;28;20087;-44
2022/11/29 02:42:27;;;;;;;12.60;8.50;;;;;;;8.61;72.36;100051.59;5033951;28;20064;-45
2022/11/29 02:45:07;;;;;;;12.95;8.60;;;;;;;8.44;72.91;100046.66;5034106;28;20083;-44
2022/11/29 02:47:58;;;;;;;12.25;8.05;;;;;;;8.13;74.65;100043.09;5034253;28;20025;-45
2022/11/29 02:50:39;;;;;;;14.75;9.63;;;;;;;8.20;73.90;100049.31;5034070;28;20033;-46
2022/11/29 02:53:20;;;;;;;14.52;9.95;;;;;;;8.32;73.18;100047.06;5033999;28;20094;-45
2022/11/29 02:55:58;;;;;;;15.27;9.82;;;;;;;8.27;73.91;100049.44;5033934;28;20018;-45
2022/11/29 02:58:40;;;;;;;15.85;10.15;;;;;;;8.33;73.99;100046.03;5034094;28;20073;-46
2022/11/29 03:01:20;;;;;;;15.05;9.88;;;;;;;8.35;73.60;100045.88;5033927;28;20108;-45
2022/11/29 03:04:09;;;;;;;14.95;10.02;;;;;;;7.97;75.18;100053.84;5033562;28;20025;-46
2022/11/29 03:07:04;;;;;;;15.32;10.10;;;;;;;7.78;75.91;100055.16;5033776;28;20037;-45
2022/11/29 03:09:42;;;;;;;15.18;9.73;;;;;;;7.95;75.34;100051.38;5033513;28;20022;-45
2022/11/29 03:12:26;;;;;;;14.77;9.57;;;;;;;8.02;74.67;100049.66;5033417;28;20099;-46
2022/11/29 03:15:29;;;;;;;14.77;9.90;;;;;;;8.19;74.10;100054.81;5033332;28;20486;-45
2022/11/29 03:18:31;;;;;;;14.63;9.75;;;;;;;8.13;74.62;100053.72;5033467;28;20021;-44
2022/11/29 03:21:32;;;;;;;16.08;11.13;;;;;;;8.25;73.86;100050.63;5033426;28;20068;-44
2022/11/29 03:24:03;;;;;;;16.95;10.80;;;;;;;8.19;74.28;100046.88;5028120;28;20528;-46
2022/11/29 03:26:35;;;;;;;17.88;10.70;;;;;;;7.93;75.20;100052.56;5033260;28;20037;-46
2022/11/29 03:29:10;;;;;;;15.60;10.65;;;;;;;8.06;74.66;100044.00;5033112;28;20029;-47
2022/11/29 03:31:53;;;;;;;17.38;10.98;;;;;;;7.88;75.36;100047.81;5033425;28;20025;-46
2022/11/29 03:34:41;;;;;;;17.88;11.18;;;;;;;7.92;75.05;100033.19;5033006;28;20025;-46
2022/11/29 03:37:18;;;;;;;18.75;11.23;;;;;;;8.23;74.50;100043.66;5032898;28;20398;-46
2022/11/29 03:39:49;;;;;;;18.75;11.18;;;;;;;8.35;73.64;100038.72;5033158;28;20146;-46
2022/11/29 03:42:31;;;;;;;17.27;10.88;;;;;;;8.02;74.57;100043.53;5032635;28;20112;-47
2022/11/29 03:45:35;;;;;;;17.63;11.27;;;;;;;7.63;76.86;100042.69;5032829;28;20017;-48
2022/11/29 03:48:34;;;;;;;17.15;10.80;;;;;;;7.85;76.05;100042.84;5031573;28;20038;-47
2022/11/29 03:51:11;;;;;;;17.88;11.32;;;;;;;7.95;75.63;100039.94;5032402;28;20022;-45
2022/11/29 03:53:50;;;;;;;17.27;11.35;;;;;;;7.96;75.60;100041.59;5032878;28;20482;-51
2022/11/29 03:56:38;;;;;;;19.45;11.90;;;;;;;8.16;75.34;100044.56;5033685;28;20100;-46
2022/11/29 03:59:24;;;;;;;18.27;11.32;;;;;;;8.09;74.68;100046.28;5033414;28;20021;-46
2022/11/29 04:02:27;;;;;;;20.15;11.55;;;;;;;7.77;76.61;100050.88;5033699;28;20032;-48
2022/11/29 04:05:20;;;;;;;25.60;15.77;;;;;;;6.96;79.14;100050.34;5033454;28;20509;-45
2022/11/29 04:08:13;;;;;;;41.63;24.17;;;;;;;6.12;81.61;100053.41;5033486;28;20512;-46
2022/11/29 04:11:14;;;;;;;33.50;19.10;;;;;;;6.47;82.56;100061.91;5032491;28;20028;-45
2022/11/29 04:14:04;;;;;;;23.33;13.45;;;;;;;6.00;84.65;100054.75;5032224;28;20049;-46
2022/11/29 04:16:51;;;;;;;22.98;13.52;;;;;;;5.71;85.49;100061.28;5032402;28;20436;-44
2022/11/29 04:19:47;;;;;;;24.45;13.93;;;;;;;6.42;85.25;100057.16;5032113;28;20084;-45
2022/11/29 04:22:50;;;;;;;22.30;13.38;;;;;;;5.95;86.08;100060.50;5031986;28;20032;-45
2022/11/29 04:25:27;;;;;;;25.58;14.20;;;;;;;5.90;86.88;100062.78;5031842;28;20512;-44
2022/11/29 04:28:04;;;;;;;24.88;13.82;;;;;;;6.51;84.27;100060.59;5031923;28;20021;-44
2022/11/29 04:30:42;;;;;;;24.13;13.68;;;;;;;6.21;86.22;100065.63;5031969;28;20029;-46
2022/11/29 04:33:19;;;;;;;24.55;13.45;;;;;;;5.71;84.83;100060.47;5031746;28;20112;-43
2022/11/29 04:35:50;;;;;;;25.05;14.27;;;;;;;5.94;86.73;100060.63;5030829;28;20480;-44
2022/11/29 04:38:37;;;;;;;26.92;15.35;;;;;;;5.99;87.74;100058.34;5032423;28;20487;-50
2022/11/29 04:41:21;;;;;;;39.05;21.92;;;;;;;5.63;86.73;100058.63;5032174;28;20048;-46
2022/11/29 04:43:52;;;;;;;28.73;15.73;;;;;;;5.43;87.20;100058.13;5031842;28;20179;-43
2022/11/29 04:46:18;;;;;;;29.88;15.40;;;;;;;5.24;90.48;100061.88;5031720;28;20345;-45
2022/11/29 04:49:21;;;;;;;29.73;16.38;;;;;;;5.24;90.48;100062.69;5031708;28;20034;-46
2022/11/29 04:51:52;;;;;;;29.85;15.50;;;;;;;5.17;90.56;100066.97;5028150;28;20034;-46
2022/11/29 04:54:40;;;;;;;29.42;16.00;;;;;;;5.14;91.00;100074.38;5032033;28;20026;-51
2022/11/29 04:57:35;;;;;;;27.67;16.00;;;;;;;5.14;90.29;100067.31;5032420;28;20489;-45
2022/11/29 05:00:12;;;;;;;29.25;15.93;;;;;;;5.13;90.82;100078.81;5032491;28;20017;-50
2022/11/29 05:02:52;;;;;;;30.95;16.88;;;;;;;5.09;90.29;100070.41;5031066;28;20040;-45
2022/11/29 05:05:50;;;;;;;30.48;16.20;;;;;;;5.04;91.78;100082.41;5031239;28;20024;-43
2022/11/29 05:08:36;;;;;;;34.58;18.20;;;;;;;5.17;90.46;100084.63;5022400;28;20132;-44
2022/11/29 05:11:29;;;;;;;48.92;25.35;;;;;;;5.18;90.28;100078.34;5011727;28;20030;-47
2022/11/29 05:14:14;;;;;;;29.15;16.55;;;;;;;5.21;91.37;100085.94;5011842;28;20033;-46
2022/11/29 05:16:46;;;;;;;33.53;19.25;;;;;;;5.00;92.38;100084.53;5011824;28;20076;-47
2022/11/29 05:19:30;;;;;;;31.63;17.80;;;;;;;5.02;92.59;100085.22;5011387;28;20226;-45
2022/11/29 05:22:35;;;;;;;31.40;16.88;;;;;;;4.87;93.23;100089.44;5011483;28;20088;-49
2022/11/29 05:25:24;;;;;;;31.20;16.55;;;;;;;5.02;92.94;100085.22;5011384;28;20049;-49
2022/11/29 05:28:06;;;;;;;33.78;17.75;;;;;;;5.01;92.70;100083.56;5011566;28;20501;-47
2022/11/29 05:30:59;;;;;;;36.67;18.95;;;;;;;5.71;92.62;100098.25;5011539;28;20041;-44
2022/11/29 05:33:57;;;;;;;37.08;17.75;;;;;;;5.93;91.48;100098.63;5012085;28;20092;-45
2022/11/29 05:36:54;;;;;;;36.33;18.83;;;;;;;7.17;100.00;100100.03;5010854;28;20120;-47
2022/11/29 05:40:05;;;;;;;28.90;17.65;;;;;;;9.10;75.91;100105.09;5011721;28;20037;-46
2022/11/29 05:43:01;;;;;;;38.40;21.25;;;;;;;7.69;78.28;100104.75;5010543;28;20115;-45
2022/11/29 05:45:53;;;;;;;36.95;21.45;;;;;;;6.65;83.34;100110.13;5010766;28;20026;-45
2022/11/29 05:48:44;;;;;;;43.97;25.30;;;;;;;7.22;83.98;100114.41;5009979;28;20041;-45
2022/11/29 05:51:26;;;;;;;35.30;20.48;;;;;;;6.56;85.46;100105.03;5011503;28;20510;-46
2022/11/29 05:54:24;;;;;;;29.45;16.98;;;;;;;6.02;86.55;100108.25;5012209;28;20022;-52
2022/11/29 05:57:27;;;;;;;31.27;16.85;;;;;;;5.62;88.51;100110.63;5011175;28;20053;-45
2022/11/29 05:59:56;;;;;;;48.67;26.85;;;;;;;5.45;90.03;100108.94;5010811;28;20128;-45
2022/11/29 06:02:46;;;;;;;33.63;18.75;;;;;;;5.39;90.16;100123.63;5011420;28;20083;-46
2022/11/29 06:05:22;;;;;;;52.90;30.33;;;;;;;5.39;91.36;100104.31;5010520;28;20108;-46
2022/11/29 06:07:54;;;;;;;63.33;37.08;;;;;;;5.36;92.54;100107.28;5010607;28;20425;-44
2022/11/29 06:10:27;;;;;;;55.55;30.95;;;;;;;5.25;92.39;100100.47;5010627;28;20018;-51
2022/11/29 06:13:04;;;;;;;38.35;20.40;;;;;;;5.41;91.77;100111.09;5010101;28;20046;-44
2022/11/29 06:15:42;;;;;;;27.88;16.52;;;;;;;5.32;91.40;100119.13;5010830;28;20061;-45
2022/11/29 06:18:32;;;;;;;29.60;15.70;;;;;;;5.31;91.60;100117.47;5010437;28;20104;-46
2022/11/29 06:21:11;;;;;;;29.13;15.98;;;;;;;5.33;90.65;100120.78;5009728;28;20040;-45
2022/11/29 06:23:49;;;;;;;31.02;16.67;;;;;;;5.47;91.11;100112.25;5009442;28;20036;-45
2022/11/29 06:26:33;;;;;;;30.13;16.85;;;;;;;5.34;90.65;100120.63;5009640;28;20042;-46
2022/11/29 06:29:22;;;;;;;35.70;17.90;;;;;;;5.56;90.85;100113.09;5009528;28;20022;-44
2022/11/29 06:32:24;;;;;;;31.17;18.00;;;;;;;5.39;91.88;100114.88;5009229;28;20136;-45
2022/11/29 06:34:55;;;;;;;34.10;18.23;;;;;;;5.26;91.84;100110.03;5009199;28;20116;-46
2022/11/29 06:37:28;;;;;;;33.10;17.58;;;;;;;5.25;91.91;100114.50;5017877;28;20616;-44
2022/11/29 06:39:54;;;;;;;32.42;17.00;;;;;;;5.39;91.24;100109.59;5029754;28;20018;-45
2022/11/29 06:42:19;;;;;;;30.42;16.17;;;;;;;5.42;91.54;100118.00;5030384;28;20106;-47
2022/11/29 06:44:45;;;;;;;29.42;15.80;;;;;;;5.36;92.78;100110.72;5030166;28;20495;-44
2022/11/29 06:47:41;;;;;;;34.58;17.52;;;;;;;5.32;92.92;100104.13;5029921;28;20084;-45
2022/11/29 06:50:25;;;;;;;33.08;17.50;;;;;;;5.39;92.83;100107.78;5030165;28;20021;-36
2022/11/29 06:52:59;;;;;;;32.50;17.75;;;;;;;5.48;91.34;100105.97;5030024;28;20552;-37
2022/11/29 06:56:03;;;;;;;36.55;17.77;;;;;;;5.42;92.31;100109.25;5029814;28;20025;-37
2022/11/29 06:58:43;;;;;;;33.15;16.20;;;;;;;5.53;92.29;100110.78;5030030;28;20025;-38
2022/11/29 07:01:14;;;;;;;35.67;17.80;;;;;;;5.45;92.30;100104.50;5030002;28;20120;-37
2022/11/29 07:03:51;;;;;;;31.55;16.55;;;;;;;5.45;92.57;100117.69;5028489;28;20030;-37
2022/11/29 07:06:35;;;;;;;31.85;17.67;;;;;;;5.47;93.49;100113.06;5028271;28;20094;-37
2022/11/29 07:09:13;;;;;;;33.25;17.35;;;;;;;5.56;91.96;100121.00;5029510;28;20156;-37
2022/11/29 07:11:39;;;;;;;31.40;17.15;;;;;;;5.58;92.82;100116.38;5029298;28;20501;-36
2022/11/29 07:14:05;;;;;;;32.83;17.27;;;;;;;5.60;92.84;100117.06;5029112;28;20072;-36
2022/11/29 07:16:35;;;;;;;35.20;17.83;;;;;;;5.55;92.98;100114.09;5028799;28;20436;-37
2022/11/29 07:19:28;;;;;;;34.95;17.60;;;;;;;5.64;92.20;100118.41;5028701;28;20055;-36
2022/11/29 07:22:29;;;;;;;32.75;17.80;;;;;;;5.71;93.02;100118.56;5028709;28;20040;-36
2022/11/29 07:25:22;;;;;;;33.17;17.33;;;;;;;5.79;93.27;100115.94;5028489;28;20140;-36
2022/11/29 07:28:02;;;;;;;39.45;19.40;;;;;;;6.88;91.01;100116.53;5031765;28;20104;-37
2022/11/29 07:30:49;;;;;;;32.38;17.65;;;;;;;6.35;90.76;100116.97;5031981;28;20112;-34
2022/11/29 07:33:53;;;;;;;31.50;16.50;;;;;;;6.03;91.04;100118.63;5032256;28;20048;-36
2022/11/29 07:36:48;;;;;;;29.02;15.60;;;;;;;5.93;91.26;100117.13;5031077;28;20317;-36
2022/11/29 07:39:39;;;;;;;29.27;16.75;;;;;;;5.97;91.15;100111.34;5032213;28;20025;-36
2022/11/29 07:42:13;;;;;;;33.17;18.08;;;;;;;6.18;90.20;100113.50;5032652;28;20044;-37
2022/11/29 07:44:51;;;;;;;32.10;16.48;;;;;;;5.87;91.91;100102.75;5032466;28;20429;-36
2022/11/29 07:47:17;;;;;;;30.42;17.02;;;;;;;5.94;92.41;100105.53;5032214;28;20503;-37
2022/11/29 07:49:42;;;;;;;28.92;15.60;;;;;;;5.97;92.80;100107.91;5032037;28;20025;-36
2022/11/29 07:52:11;;;;;;;32.90;16.52;;;;;;;6.07;91.65;100108.53;5032172;28;20045;-35
2022/11/29 07:54:37;;;;;;;29.80;15.02;;;;;;;5.91;92.43;100105.88;5030580;28;20021;-36
2022/11/29 07:57:02;;;;;;;28.10;15.38;;;;;;;5.93;92.51;100106.53;5031974;28;20390;-36
2022/11/29 07:59:28;;;;;;;28.90;15.13;;;;;;;6.02;91.41;100103.78;5031977;28;20052;-37
2022/11/29 08:01:54;;;;;;;27.80;14.38;;;;;;;6.09;91.75;100117.13;5032028;28;20031;-37
2022/11/29 08:04:19;;;;;;;24.98;13.75;;;;;;;6.04;91.60;100115.00;5032062;28;20091;-36
2022/11/29 08:06:45;;;;;;;27.23;14.30;;;;;;;6.14;91.59;100114.84;5031966;28;20045;-36
2022/11/29 08:09:10;;;;;;;25.27;14.18;;;;;;;6.34;92.49;100120.63;5032027;28;20559;-36
2022/11/29 08:11:35;;;;;;;27.63;14.23;;;;;;;7.10;91.46;100122.91;5031919;28;20477;-36
2022/11/29 08:14:03;;;;;;;20.25;11.20;;;;;;;6.79;88.08;100115.72;5031953;28;20030;-36
2022/11/29 08:16:29;;;;;;;21.90;11.25;;;;;;;6.30;88.27;100121.09;5031540;28;20029;-36
2022/11/29 08:18:55;;;;;;;22.20;13.15;;;;;;;6.23;90.88;100121.78;5031565;28;20383;-36
2022/11/29 08:21:20;;;;;;;30.55;14.18;;;;;;;6.74;90.83;100125.97;5031627;28;20021;-36
2022/11/29 08:23:47;;;;;;;26.02;14.25;;;;;;;7.06;88.82;100122.41;5031623;28;20571;-36
2022/11/29 08:26:14;;;;;;;25.80;14.60;;;;;;;6.69;87.98;100118.56;5031448;28;20041;-37
2022/11/29 08:28:39;;;;;;;27.08;14.45;;;;;;;6.54;87.28;100121.06;5031765;28;20034;-36
2022/11/29 08:31:07;;;;;;;27.67;15.05;;;;;;;6.50;89.90;100117.13;5031655;28;20052;-36
2022/11/29 08:33:37;;;;;;;29.98;16.20;;;;;;;7.38;88.72;100129.38;5031819;28;20114;-38
2022/11/29 08:36:07;;;;;;;27.58;15.13;;;;;;;7.05;86.72;100108.38;5031620;28;20025;-36
2022/11/29 08:38:32;;;;;;;;;;;;;;;6.91;85.66;100117.03;5032126;28;20033;-36
2022/11/29 08:41:02;;;;;;;26.23;14.43;;;;;;;6.56;87.29;100116.44;5029824;28;19932;-36
2022/11/29 08:43:28;;;;;;;24.00;13.73;;;;;;;7.03;88.44;100110.34;5031311;28;20048;-35
2022/11/29 08:45:54;;;;;;;25.20;13.60;;;;;;;7.19;88.21;100106.81;5031248;28;20025;-35
2022/11/29 08:48:19;;;;;;;23.70;12.57;;;;;;;6.85;86.39;100105.31;5030813;28;20053;-36
2022/11/29 08:50:48;;;;;;;20.90;11.95;;;;;;;6.64;88.56;100105.88;5030992;28;20053;-36
2022/11/29 08:55:59;;;;;;;28.17;15.00;;;;;;;6.59;89.27;100102.06;5031400;28;20082;-37
2022/11/29 08:58:25;;;;;;;23.63;12.82;;;;;;;6.69;88.27;100099.22;5030857;28;20386;-36
2022/11/29 09:00:51;;;;;;;26.23;12.27;;;;;;;6.45;89.44;100101.78;5030792;28;20037;-36
2022/11/29 09:06:09;;;;;;;22.70;12.13;;;;;;;6.78;90.19;100090.28;5030953;28;20528;-37
2022/11/29 09:08:35;;;;;;;22.98;12.00;;;;;;;7.49;88.27;100099.06;5030767;28;20083;-37
2022/11/29 09:11:07;;;;;;;16.00;8.23;;;;;;;7.55;85.45;100090.41;5030931;28;20018;-36
2022/11/29 09:13:32;;;;;;;13.95;8.40;;;;;;;7.06;86.36;100080.06;5030709;28;20030;-36
2022/11/29 09:15:57;;;;;;;12.52;7.82;;;;;;;6.90;84.90;100082.81;5030619;28;20037;-37
2022/11/29 09:18:23;;;;;;;14.18;7.97;;;;;;;6.89;88.25;100084.59;5030487;28;20025;-36
2022/11/29 09:20:48;;;;;;;14.65;8.10;;;;;;;7.77;85.07;100088.78;5030258;28;20052;-35
2022/11/29 09:23:14;;;;;;;12.90;8.35;;;;;;;7.34;84.96;100077.78;5030303;28;20029;-36
2022/11/29 09:25:39;;;;;;;13.63;8.10;;;;;;;6.89;85.08;100076.66;5030256;28;20053;-36
2022/11/29 09:28:05;;;;;;;15.05;8.82;;;;;;;6.84;87.25;100068.44;5030193;28;20033;-36
2022/11/29 09:30:30;;;;;;;14.48;8.55;;;;;;;7.29;89.97;100066.06;5030296;28;20485;-36
2022/11/29 09:33:03;;;;;;;15.93;8.93;;;;;;;7.84;86.42;100062.38;5029921;28;20025;-37
2022/11/29 09:35:30;;;;;;;16.27;8.43;;;;;;;7.49;85.15;100054.03;5030331;28;20420;-36
2022/11/29 09:37:55;;;;;;;14.20;8.02;;;;;;;7.19;86.09;100050.41;5030008;28;20416;-37
2022/11/29 09:40:29;;;;;;;16.95;8.65;;;;;;;7.20;87.86;100047.59;5030002;28;20025;-36
2022/11/29 09:43:21;;;;;;;23.50;11.48;;;;;;;7.92;86.14;100048.25;5030048;28;20429;-37
2022/11/29 09:45:47;;;;;;;;;;;;;;;7.59;85.49;100040.56;5029559;28;20115;-37
2022/11/29 09:48:22;;;;;;;15.45;8.90;;;;;;;7.35;85.62;100047.69;5029535;28;20016;-37
2022/11/29 09:51:26;;;;;;;14.07;8.38;;;;;;;7.21;86.80;100048.41;5029792;28;20057;-37
2022/11/29 09:54:03;;;;;;;15.18;8.63;;;;;;;8.21;84.61;100044.84;5007532;28;20133;-36
2022/11/29 09:56:42;;;;;;;12.90;7.53;;;;;;;7.65;85.19;100034.53;5026876;28;20037;-37
2022/11/29 09:59:15;;;;;;;13.32;7.50;;;;;;;7.57;85.27;100043.38;5029645;28;20037;-36
2022/11/29 10:01:46;;;;;;;13.63;8.23;;;;;;;7.55;84.82;100048.03;5029919;28;20401;-36
2022/11/29 10:04:17;;;;;;;15.25;8.73;;;;;;;7.56;84.61;100033.81;5029151;28;20404;-36
2022/11/29 10:06:59;;;;;;;14.30;8.75;;;;;;;7.53;84.43;100047.38;5029647;28;20032;-37
2022/11/29 10:09:43;;;;;;;15.90;8.70;;;;;;;7.75;84.82;100043.09;5029820;28;20021;-37
2022/11/29 10:12:21;;;;;;;15.15;9.35;;;;;;;8.33;83.59;100047.88;5028238;28;20032;-36
2022/11/29 10:15:03;;;;;;;14.80;9.20;;;;;;;7.79;83.92;100043.56;5029526;28;20167;-36
2022/11/29 10:17:35;;;;;;;19.38;10.77;;;;;;;7.55;83.14;100033.97;5029356;28;20029;-36
2022/11/29 10:20:08;;;;;;;20.02;11.23;;;;;;;7.29;86.37;100035.16;5029511;28;20080;-36
2022/11/29 10:22:43;;;;;;;17.73;11.00;;;;;;;8.27;85.37;100032.69;5029970;28;20115;-36
2022/11/29 10:25:20;;;;;;;17.98;9.77;;;;;;;7.93;84.05;100036.66;5029808;28;20081;-37
2022/11/29 10:27:45;;;;;;;13.93;8.43;;;;;;;7.51;84.40;100032.69;5030052;28;20044;-35
2022/11/29 10:30:14;;;;;;;14.40;9.05;;;;;;;7.38;86.12;100023.47;5029949;28;20088;-37
2022/11/29 10:32:41;;;;;;;16.52;9.60;;;;;;;8.20;85.64;100025.44;5030132;28;20465;-36
2022/11/29 10:35:15;;;;;;;16.83;9.80;;;;;;;8.15;85.67;100025.19;5030204;28;20386;-36
2022/11/29 10:37:41;;;;;;;15.30;9.48;;;;;;;7.74;84.53;100028.19;5030289;28;20032;-37
2022/11/29 10:40:14;;;;;;;14.55;9.35;;;;;;;7.73;85.12;100031.00;5030235;28;20026;-36
2022/11/29 10:42:51;;;;;;;18.55;10.38;;;;;;;7.94;87.43;100022.38;5029994;28;20501;-37
2022/11/29 10:45:27;;;;;;;18.23;10.65;;;;;;;8.52;85.80;100026.16;5030215;28;20026;-37
2022/11/29 10:47:56;;;;;;;16.35;10.00;;;;;;;8.09;84.31;100014.47;5029798;28;20490;-37
2022/11/29 10:50:28;;;;;;;15.27;9.18;;;;;;;7.88;85.03;100018.66;5029794;28;20101;-37
2022/11/29 10:53:06;;;;;;;14.85;9.00;;;;;;;7.75;85.93;100023.69;5029907;28;20111;-36
2022/11/29 10:55:42;;;;;;;15.30;9.02;;;;;;;7.55;86.45;100018.06;5029874;28;20037;-37
2022/11/29 10:58:19;;;;;;;15.23;9.65;;;;;;;7.59;86.56;100016.72;5029956;28;20105;-36
2022/11/29 11:01:06;;;;;;;17.10;9.95;;;;;;;7.41;87.84;100009.91;5032414;28;20033;-36
2022/11/29 11:03:36;;;;;;;17.15;10.07;;;;;;;8.08;87.10;100018.13;5033329;28;20029;-36
2022/11/29 11:06:06;;;;;;;18.13;9.68;;;;;;;8.21;85.38;100007.72;5032099;28;20403;-37
2022/11/29 11:08:33;;;;;;;15.00;8.30;;;;;;;7.72;86.41;100013.47;5033514;28;20075;-38
2022/11/29 11:10:59;;;;;;;15.05;9.02;;;;;;;7.43;86.20;100007.91;5033565;28;20029;-37
2022/11/29 11:13:28;;;;;;;15.27;8.95;;;;;;;7.59;88.41;100008.78;5033323;28;20022;-37
2022/11/29 11:16:07;;;;;;;14.63;8.63;;;;;;;8.65;85.05;100003.47;5033422;28;20021;-37
2022/11/29 11:18:33;;;;;;;13.48;7.72;;;;;;;8.08;83.65;100000.41;5033767;28;20493;-36
2022/11/29 11:21:02;;;;;;;12.35;7.45;;;;;;;7.83;83.54;99995.31;5033495;28;20068;-36
2022/11/29 11:23:30;;;;;;;16.05;7.85;;;;;;;7.57;86.64;100006.28;5033575;28;20037;-37
2022/11/29 11:26:01;;;;;;;18.45;8.43;;;;;;;8.46;85.66;100007.50;5033021;28;20096;-37
2022/11/29 11:28:30;;;;;;;12.43;7.45;;;;;;;8.17;83.89;99993.19;5033239;28;20030;-36
2022/11/29 11:31:06;;;;;;;15.10;7.43;;;;;;;7.78;84.66;100008.28;5033548;28;20018;-38
2022/11/29 11:33:40;;;;;;;11.38;6.80;;;;;;;7.67;86.22;100010.53;5033302;28;20083;-37
2022/11/29 11:36:18;;;;;;;10.55;6.10;;;;;;;7.52;86.14;100000.72;5033212;28;20163;-36
2022/11/29 11:38:50;;;;;;;8.75;5.60;;;;;;;7.54;86.30;99995.22;5033376;28;20494;-37
2022/11/29 11:44:24;;;;;;;8.60;4.90;;;;;;;7.36;86.06;99992.88;5033370;28;20028;-36
2022/11/29 11:46:51;;;;;;;9.23;4.95;;;;;;;7.74;87.00;99993.75;5033631;28;20025;-37
2022/11/29 11:49:32;;;;;;;9.68;5.30;;;;;;;8.10;84.65;99995.75;5033210;28;20120;-36
2022/11/29 11:51:59;;;;;;;9.45;5.50;;;;;;;7.82;84.04;99995.50;5033493;28;20401;-37
2022/11/29 11:54:25;;;;;;;10.10;5.20;;;;;;;7.49;82.95;99994.97;5033105;28;20029;-37
2022/11/29 11:56:51;;;;;;;9.25;5.32;;;;;;;7.61;87.23;99997.00;5033113;28;20083;-37
2022/11/29 11:59:20;;;;;;;9.55;5.53;;;;;;;8.32;86.57;99990.53;5032852;28;20034;-36
2022/11/29 12:01:45;;;;;;;9.10;4.97;;;;;;;7.81;83.39;99985.91;5033128;28;20031;-37
2022/11/29 12:04:19;;;;;;;9.57;5.65;;;;;;;7.38;83.83;99993.53;5032578;28;20491;-36
2022/11/29 12:06:58;;;;;;;14.65;8.88;;;;;;;7.71;86.92;99990.63;5032881;28;20040;-36
2022/11/29 12:09:34;;;;;;;14.60;8.32;;;;;;;8.38;85.44;99995.13;5032851;28;20025;-36
2022/11/29 12:12:09;;;;;;;12.05;7.18;;;;;;;7.71;84.63;99987.97;5032116;28;20029;-36
2022/11/29 12:14:53;;;;;;;13.18;8.07;;;;;;;7.48;87.06;99990.66;5032745;28;20083;-36
2022/11/29 12:17:39;;;;;;;16.70;10.82;;;;;;;7.53;87.50;99993.59;5032261;28;20068;-37